Vida, Montana
Current Conditions -  °F | °C
As of 5:43 AM on Monday 22 Dec 2014 (Local Time) from KOLF Reporting Station
Light Snow Light Snow  
Wind Chill: 18°   Ceiling: 3100
Heat Index: 30°   Visibility: 1.7mi
Dew Point: 25°   Wind: 18mph
Humidity: 82%   Direction: 310°NW
Pressure: 29.59"   Gusts: NA
Location:  47.83°N, 105.49°W
Report Text: KOLF 221243Z AUTO 31016KT 1 3/4SM -SN BKN031 OVC080 M01/M04 A2959 RMK AO2 P0000 T10111039
Loading
Personal Weather Stations






























Interactive Weather Map New forecast layout! Learn more

10-Day Weather Forecast

Advertisements
Track Severe Weather on mobile